sensor_id;sensor_type;location;lat;lon;timestamp;temperature;humidity
975;DHT22;6115;49.296;10.602;2022-11-13T00:03:35;2.30;77.30
975;DHT22;6115;49.296;10.602;2022-11-13T00:08:36;2.30;77.40
975;DHT22;6115;49.296;10.602;2022-11-13T00:13:36;2.20;77.30
975;DHT22;6115;49.296;10.602;2022-11-13T00:18:37;2.20;77.30
975;DHT22;6115;49.296;10.602;2022-11-13T00:23:38;2.20;77.30
975;DHT22;6115;49.296;10.602;2022-11-13T00:28:39;2.20;77.30
975;DHT22;6115;49.296;10.602;2022-11-13T00:33:40;2.10;77.10
975;DHT22;6115;49.296;10.602;2022-11-13T00:38:40;2.10;77.20
975;DHT22;6115;49.296;10.602;2022-11-13T00:43:41;2.20;77.30
975;DHT22;6115;49.296;10.602;2022-11-13T00:48:42;2.30;77.30
975;DHT22;6115;49.296;10.602;2022-11-13T00:53:42;2.20;77.30
975;DHT22;6115;49.296;10.602;2022-11-13T00:58:43;2.10;77.10
975;DHT22;6115;49.296;10.602;2022-11-13T01:03:44;2.00;77.00
975;DHT22;6115;49.296;10.602;2022-11-13T01:08:44;1.90;77.00
975;DHT22;6115;49.296;10.602;2022-11-13T01:13:47;1.90;77.00
975;DHT22;6115;49.296;10.602;2022-11-13T01:18:49;1.80;76.90
975;DHT22;6115;49.296;10.602;2022-11-13T01:23:50;1.70;76.80
975;DHT22;6115;49.296;10.602;2022-11-13T01:28:51;1.70;76.80
975;DHT22;6115;49.296;10.602;2022-11-13T01:33:52;1.50;76.60
975;DHT22;6115;49.296;10.602;2022-11-13T01:38:53;1.50;76.60
975;DHT22;6115;49.296;10.602;2022-11-13T01:43:54;1.40;76.50
975;DHT22;6115;49.296;10.602;2022-11-13T01:54:07;1.30;76.50
975;DHT22;6115;49.296;10.602;2022-11-13T01:59:16;1.30;76.50
975;DHT22;6115;49.296;10.602;2022-11-13T02:04:17;1.30;76.40
975;DHT22;6115;49.296;10.602;2022-11-13T02:09:20;1.20;76.40
975;DHT22;6115;49.296;10.602;2022-11-13T02:14:25;1.20;76.40
975;DHT22;6115;49.296;10.602;2022-11-13T02:19:30;1.20;76.40
975;DHT22;6115;49.296;10.602;2022-11-13T02:24:33;1.10;76.50
975;DHT22;6115;49.296;10.602;2022-11-13T02:29:35;1.10;76.90
975;DHT22;6115;49.296;10.602;2022-11-13T02:34:36;1.10;76.90
975;DHT22;6115;49.296;10.602;2022-11-13T02:39:36;1.10;76.60
975;DHT22;6115;49.296;10.602;2022-11-13T02:44:37;1.00;76.20
975;DHT22;6115;49.296;10.602;2022-11-13T02:49:37;1.00;76.20
975;DHT22;6115;49.296;10.602;2022-11-13T02:54:38;0.90;76.10
975;DHT22;6115;49.296;10.602;2022-11-13T02:59:39;0.80;76.00
975;DHT22;6115;49.296;10.602;2022-11-13T03:04:40;0.80;76.00
975;DHT22;6115;49.296;10.602;2022-11-13T03:09:40;0.70;75.90
975;DHT22;6115;49.296;10.602;2022-11-13T03:14:41;0.70;75.90
975;DHT22;6115;49.296;10.602;2022-11-13T03:19:42;0.60;75.80
975;DHT22;6115;49.296;10.602;2022-11-13T03:24:43;0.70;75.90
975;DHT22;6115;49.296;10.602;2022-11-13T03:29:44;0.60;75.80
975;DHT22;6115;49.296;10.602;2022-11-13T03:34:44;0.50;75.60
975;DHT22;6115;49.296;10.602;2022-11-13T03:39:45;0.50;75.70
975;DHT22;6115;49.296;10.602;2022-11-13T03:44:45;0.50;75.70
975;DHT22;6115;49.296;10.602;2022-11-13T03:49:46;0.50;75.70
975;DHT22;6115;49.296;10.602;2022-11-13T03:54:46;0.40;75.60
975;DHT22;6115;49.296;10.602;2022-11-13T03:59:47;0.30;75.50
975;DHT22;6115;49.296;10.602;2022-11-13T04:04:47;0.30;75.50
975;DHT22;6115;49.296;10.602;2022-11-13T04:09:48;0.30;75.50
975;DHT22;6115;49.296;10.602;2022-11-13T04:14:48;0.30;75.50
975;DHT22;6115;49.296;10.602;2022-11-13T04:19:49;0.30;75.50
975;DHT22;6115;49.296;10.602;2022-11-13T04:24:49;0.40;75.60
975;DHT22;6115;49.296;10.602;2022-11-13T04:29:50;0.40;75.20
975;DHT22;6115;49.296;10.602;2022-11-13T04:34:50;0.40;75.00
975;DHT22;6115;49.296;10.602;2022-11-13T04:39:51;0.40;75.00
975;DHT22;6115;49.296;10.602;2022-11-13T04:44:52;0.40;74.90
975;DHT22;6115;49.296;10.602;2022-11-13T04:49:52;0.40;74.60
975;DHT22;6115;49.296;10.602;2022-11-13T04:54:53;0.40;74.20
975;DHT22;6115;49.296;10.602;2022-11-13T04:59:54;0.40;73.90
975;DHT22;6115;49.296;10.602;2022-11-13T05:04:55;0.30;73.50
975;DHT22;6115;49.296;10.602;2022-11-13T05:09:55;0.30;73.50
975;DHT22;6115;49.296;10.602;2022-11-13T05:14:56;0.30;73.40
975;DHT22;6115;49.296;10.602;2022-11-13T05:19:56;0.20;73.30
975;DHT22;6115;49.296;10.602;2022-11-13T05:24:57;0.20;73.40
975;DHT22;6115;49.296;10.602;2022-11-13T05:29:57;0.20;73.50
975;DHT22;6115;49.296;10.602;2022-11-13T05:34:58;0.10;73.60
975;DHT22;6115;49.296;10.602;2022-11-13T05:39:58;0.10;73.60
975;DHT22;6115;49.296;10.602;2022-11-13T05:44:59;0.20;73.50
975;DHT22;6115;49.296;10.602;2022-11-13T05:49:59;0.20;73.30
975;DHT22;6115;49.296;10.602;2022-11-13T05:55:00;0.20;73.10
975;DHT22;6115;49.296;10.602;2022-11-13T06:00:00;0.10;73.00
975;DHT22;6115;49.296;10.602;2022-11-13T06:05:01;0.10;73.30
975;DHT22;6115;49.296;10.602;2022-11-13T06:10:02;0.00;73.40
975;DHT22;6115;49.296;10.602;2022-11-13T06:15:03;0.00;73.50
975;DHT22;6115;49.296;10.602;2022-11-13T06:20:03;0.00;73.40
975;DHT22;6115;49.296;10.602;2022-11-13T06:25:05;0.10;73.50
975;DHT22;6115;49.296;10.602;2022-11-13T06:30:06;0.00;73.40
975;DHT22;6115;49.296;10.602;2022-11-13T06:35:07;0.00;73.50
975;DHT22;6115;49.296;10.602;2022-11-13T06:40:08;0.00;73.60
975;DHT22;6115;49.296;10.602;2022-11-13T06:45:09;0.10;73.70
975;DHT22;6115;49.296;10.602;2022-11-13T06:50:09;0.10;73.60
975;DHT22;6115;49.296;10.602;2022-11-13T06:55:10;0.10;73.70
975;DHT22;6115;49.296;10.602;2022-11-13T07:00:11;0.10;73.80
975;DHT22;6115;49.296;10.602;2022-11-13T07:05:12;0.10;73.80
975;DHT22;6115;49.296;10.602;2022-11-13T07:10:18;0.10;74.20
975;DHT22;6115;49.296;10.602;2022-11-13T07:15:19;0.10;74.40
975;DHT22;6115;49.296;10.602;2022-11-13T07:20:20;0.20;74.60
975;DHT22;6115;49.296;10.602;2022-11-13T07:25:20;0.20;74.80
975;DHT22;6115;49.296;10.602;2022-11-13T07:30:21;0.20;75.10
975;DHT22;6115;49.296;10.602;2022-11-13T07:35:22;0.30;75.50
975;DHT22;6115;49.296;10.602;2022-11-13T07:40:23;0.40;75.60
975;DHT22;6115;49.296;10.602;2022-11-13T07:45:24;0.40;75.60
975;DHT22;6115;49.296;10.602;2022-11-13T07:50:30;0.60;75.80
975;DHT22;6115;49.296;10.602;2022-11-13T07:55:32;0.70;76.20
975;DHT22;6115;49.296;10.602;2022-11-13T08:00:34;0.90;76.70
975;DHT22;6115;49.296;10.602;2022-11-13T08:05:35;1.00;77.20
975;DHT22;6115;49.296;10.602;2022-11-13T08:10:35;1.10;77.40
975;DHT22;6115;49.296;10.602;2022-11-13T08:15:36;1.30;77.70
975;DHT22;6115;49.296;10.602;2022-11-13T08:20:37;1.40;78.00
975;DHT22;6115;49.296;10.602;2022-11-13T08:25:37;1.50;78.10
975;DHT22;6115;49.296;10.602;2022-11-13T08:30:41;1.70;78.10
975;DHT22;6115;49.296;10.602;2022-11-13T08:35:54;1.90;78.20
975;DHT22;6115;49.296;10.602;2022-11-13T08:40:56;2.00;78.40
975;DHT22;6115;49.296;10.602;2022-11-13T08:45:57;2.20;79.00
975;DHT22;6115;49.296;10.602;2022-11-13T08:50:58;2.50;80.00
975;DHT22;6115;49.296;10.602;2022-11-13T08:56:02;2.80;81.00
975;DHT22;6115;49.296;10.602;2022-11-13T09:01:03;3.10;81.50
975;DHT22;6115;49.296;10.602;2022-11-13T09:06:05;3.50;82.40
975;DHT22;6115;49.296;10.602;2022-11-13T09:11:06;3.70;82.40
975;DHT22;6115;49.296;10.602;2022-11-13T09:16:06;4.00;82.70
975;DHT22;6115;49.296;10.602;2022-11-13T09:21:07;4.30;83.40
975;DHT22;6115;49.296;10.602;2022-11-13T09:26:08;4.90;84.30
975;DHT22;6115;49.296;10.602;2022-11-13T09:31:08;5.60;85.10
975;DHT22;6115;49.296;10.602;2022-11-13T09:36:11;6.50;86.20
975;DHT22;6115;49.296;10.602;2022-11-13T09:41:17;7.40;82.80
975;DHT22;6115;49.296;10.602;2022-11-13T09:46:46;8.30;78.20
975;DHT22;6115;49.296;10.602;2022-11-13T09:51:50;9.00;71.50
975;DHT22;6115;49.296;10.602;2022-11-13T10:02:49;10.30;65.10
975;DHT22;6115;49.296;10.602;2022-11-13T10:08:06;10.90;63.20
975;DHT22;6115;49.296;10.602;2022-11-13T10:13:13;11.10;62.50
975;DHT22;6115;49.296;10.602;2022-11-13T10:18:26;11.50;60.60
975;DHT22;6115;49.296;10.602;2022-11-13T10:23:33;11.70;57.90
975;DHT22;6115;49.296;10.602;2022-11-13T10:28:35;11.90;57.40
975;DHT22;6115;49.296;10.602;2022-11-13T10:33:35;12.20;56.50
975;DHT22;6115;49.296;10.602;2022-11-13T10:38:43;12.00;55.20
975;DHT22;6115;49.296;10.602;2022-11-13T10:44:04;12.00;54.90
975;DHT22;6115;49.296;10.602;2022-11-13T10:49:16;12.10;53.00
975;DHT22;6115;49.296;10.602;2022-11-13T10:54:29;12.20;53.30
975;DHT22;6115;49.296;10.602;2022-11-13T10:59:39;12.60;52.70
975;DHT22;6115;49.296;10.602;2022-11-13T11:04:40;13.10;53.70
975;DHT22;6115;49.296;10.602;2022-11-13T11:09:40;13.80;52.70
975;DHT22;6115;49.296;10.602;2022-11-13T11:20:19;14.50;49.30
975;DHT22;6115;49.296;10.602;2022-11-13T11:30:41;14.40;45.70
975;DHT22;6115;49.296;10.602;2022-11-13T11:35:49;13.90;46.90
975;DHT22;6115;49.296;10.602;2022-11-13T11:40:58;13.90;47.40
975;DHT22;6115;49.296;10.602;2022-11-13T11:46:01;14.30;47.60
975;DHT22;6115;49.296;10.602;2022-11-13T11:56:38;14.50;45.30
975;DHT22;6115;49.296;10.602;2022-11-13T12:07:45;14.50;45.30
975;DHT22;6115;49.296;10.602;2022-11-13T12:13:12;14.40;46.50
975;DHT22;6115;49.296;10.602;2022-11-13T12:35:09;14.60;45.40
975;DHT22;6115;49.296;10.602;2022-11-13T12:40:36;14.50;45.90
975;DHT22;6115;49.296;10.602;2022-11-13T12:50:38;15.30;46.00
975;DHT22;6115;49.296;10.602;2022-11-13T12:55:40;15.90;45.60
975;DHT22;6115;49.296;10.602;2022-11-13T13:16:26;15.80;44.50
975;DHT22;6115;49.296;10.602;2022-11-13T13:21:39;15.60;44.30
975;DHT22;6115;49.296;10.602;2022-11-13T13:26:45;15.30;45.40
975;DHT22;6115;49.296;10.602;2022-11-13T13:32:03;15.50;45.00
975;DHT22;6115;49.296;10.602;2022-11-13T13:37:25;15.50;44.70
975;DHT22;6115;49.296;10.602;2022-11-13T13:47:56;15.80;44.90
975;DHT22;6115;49.296;10.602;2022-11-13T13:52:58;15.70;44.90
975;DHT22;6115;49.296;10.602;2022-11-13T13:58:01;15.50;45.10
975;DHT22;6115;49.296;10.602;2022-11-13T14:03:03;15.40;46.10
975;DHT22;6115;49.296;10.602;2022-11-13T14:08:18;15.20;46.00
975;DHT22;6115;49.296;10.602;2022-11-13T14:13:27;15.10;45.80
975;DHT22;6115;49.296;10.602;2022-11-13T14:18:27;15.10;45.80
975;DHT22;6115;49.296;10.602;2022-11-13T14:23:40;15.20;45.90
975;DHT22;6115;49.296;10.602;2022-11-13T14:28:55;15.40;46.10
975;DHT22;6115;49.296;10.602;2022-11-13T14:34:00;15.30;46.00
975;DHT22;6115;49.296;10.602;2022-11-13T14:39:01;15.00;45.70
975;DHT22;6115;49.296;10.602;2022-11-13T14:44:02;14.50;47.00
975;DHT22;6115;49.296;10.602;2022-11-13T14:49:09;14.20;47.80
975;DHT22;6115;49.296;10.602;2022-11-13T14:54:33;13.90;48.50
975;DHT22;6115;49.296;10.602;2022-11-13T14:59:34;13.70;48.80
975;DHT22;6115;49.296;10.602;2022-11-13T15:04:34;13.30;49.40
975;DHT22;6115;49.296;10.602;2022-11-13T15:09:38;12.80;49.10
975;DHT22;6115;49.296;10.602;2022-11-13T15:14:39;12.60;49.30
975;DHT22;6115;49.296;10.602;2022-11-13T15:19:40;12.40;49.30
975;DHT22;6115;49.296;10.602;2022-11-13T15:24:41;12.30;49.90
975;DHT22;6115;49.296;10.602;2022-11-13T15:29:42;12.10;49.60
975;DHT22;6115;49.296;10.602;2022-11-13T15:34:43;11.90;50.10
975;DHT22;6115;49.296;10.602;2022-11-13T15:39:44;11.80;50.70
975;DHT22;6115;49.296;10.602;2022-11-13T15:44:47;11.50;51.40
975;DHT22;6115;49.296;10.602;2022-11-13T15:49:48;11.20;51.50
975;DHT22;6115;49.296;10.602;2022-11-13T15:54:49;11.20;52.10
975;DHT22;6115;49.296;10.602;2022-11-13T15:59:50;11.00;52.10
975;DHT22;6115;49.296;10.602;2022-11-13T16:04:50;10.60;53.10
975;DHT22;6115;49.296;10.602;2022-11-13T16:09:53;10.10;54.20
975;DHT22;6115;49.296;10.602;2022-11-13T16:14:53;9.80;55.70
975;DHT22;6115;49.296;10.602;2022-11-13T16:19:54;9.50;56.90
975;DHT22;6115;49.296;10.602;2022-11-13T16:24:55;9.40;57.60
975;DHT22;6115;49.296;10.602;2022-11-13T16:29:55;9.20;57.90
975;DHT22;6115;49.296;10.602;2022-11-13T16:34:56;9.10;58.60
975;DHT22;6115;49.296;10.602;2022-11-13T16:39:56;9.00;59.30
975;DHT22;6115;49.296;10.602;2022-11-13T16:44:57;8.80;59.20
975;DHT22;6115;49.296;10.602;2022-11-13T16:49:59;8.70;59.90
975;DHT22;6115;49.296;10.602;2022-11-13T16:55:00;8.60;60.30
975;DHT22;6115;49.296;10.602;2022-11-13T17:00:00;8.50;60.50
975;DHT22;6115;49.296;10.602;2022-11-13T17:05:01;8.30;62.10
975;DHT22;6115;49.296;10.602;2022-11-13T17:10:02;8.20;62.80
975;DHT22;6115;49.296;10.602;2022-11-13T17:15:04;8.10;62.60
975;DHT22;6115;49.296;10.602;2022-11-13T17:20:05;8.00;63.40
975;DHT22;6115;49.296;10.602;2022-11-13T17:25:07;7.80;63.20
975;DHT22;6115;49.296;10.602;2022-11-13T17:30:09;7.70;64.20
975;DHT22;6115;49.296;10.602;2022-11-13T17:35:13;7.60;65.30
975;DHT22;6115;49.296;10.602;2022-11-13T17:40:13;7.50;65.60
975;DHT22;6115;49.296;10.602;2022-11-13T17:45:14;7.40;65.90
975;DHT22;6115;49.296;10.602;2022-11-13T17:50:15;7.30;66.60
975;DHT22;6115;49.296;10.602;2022-11-13T17:55:15;7.20;67.10
975;DHT22;6115;49.296;10.602;2022-11-13T18:00:17;7.10;67.50
975;DHT22;6115;49.296;10.602;2022-11-13T18:05:17;7.00;67.40
975;DHT22;6115;49.296;10.602;2022-11-13T18:10:18;6.90;67.80
975;DHT22;6115;49.296;10.602;2022-11-13T18:15:18;6.80;68.10
975;DHT22;6115;49.296;10.602;2022-11-13T18:20:19;6.80;68.00
975;DHT22;6115;49.296;10.602;2022-11-13T18:25:20;6.70;68.00
975;DHT22;6115;49.296;10.602;2022-11-13T18:30:21;6.60;68.20
975;DHT22;6115;49.296;10.602;2022-11-13T18:35:22;6.50;68.00
975;DHT22;6115;49.296;10.602;2022-11-13T18:40:22;6.40;68.20
975;DHT22;6115;49.296;10.602;2022-11-13T18:45:23;6.30;68.40
975;DHT22;6115;49.296;10.602;2022-11-13T18:50:23;6.30;68.10
975;DHT22;6115;49.296;10.602;2022-11-13T18:55:24;6.30;67.60
975;DHT22;6115;49.296;10.602;2022-11-13T19:00:24;6.20;67.30
975;DHT22;6115;49.296;10.602;2022-11-13T19:05:25;6.00;67.60
975;DHT22;6115;49.296;10.602;2022-11-13T19:10:26;6.00;67.60
975;DHT22;6115;49.296;10.602;2022-11-13T19:15:26;5.90;67.40
975;DHT22;6115;49.296;10.602;2022-11-13T19:20:27;5.90;67.20
975;DHT22;6115;49.296;10.602;2022-11-13T19:25:28;5.80;67.40
975;DHT22;6115;49.296;10.602;2022-11-13T19:30:28;5.60;67.20
975;DHT22;6115;49.296;10.602;2022-11-13T19:35:30;5.40;67.60
975;DHT22;6115;49.296;10.602;2022-11-13T19:40:32;5.30;68.40
975;DHT22;6115;49.296;10.602;2022-11-13T19:45:34;5.20;68.40
975;DHT22;6115;49.296;10.602;2022-11-13T19:50:35;5.30;68.30
975;DHT22;6115;49.296;10.602;2022-11-13T19:55:36;5.20;68.10
975;DHT22;6115;49.296;10.602;2022-11-13T20:00:36;5.10;68.00
975;DHT22;6115;49.296;10.602;2022-11-13T20:05:40;5.00;67.90
975;DHT22;6115;49.296;10.602;2022-11-13T20:10:41;4.90;67.80
975;DHT22;6115;49.296;10.602;2022-11-13T20:15:42;4.80;68.10
975;DHT22;6115;49.296;10.602;2022-11-13T20:20:43;4.70;68.10
975;DHT22;6115;49.296;10.602;2022-11-13T20:25:53;4.60;68.50
975;DHT22;6115;49.296;10.602;2022-11-13T20:31:08;4.60;68.90
975;DHT22;6115;49.296;10.602;2022-11-13T20:36:10;4.30;69.00
975;DHT22;6115;49.296;10.602;2022-11-13T20:41:11;4.20;69.00
975;DHT22;6115;49.296;10.602;2022-11-13T20:46:14;4.00;68.70
975;DHT22;6115;49.296;10.602;2022-11-13T20:51:18;4.00;68.70
975;DHT22;6115;49.296;10.602;2022-11-13T20:56:21;3.80;68.90
975;DHT22;6115;49.296;10.602;2022-11-13T21:01:24;3.80;69.10
975;DHT22;6115;49.296;10.602;2022-11-13T21:06:25;3.70;69.20
975;DHT22;6115;49.296;10.602;2022-11-13T21:11:25;3.70;69.20
975;DHT22;6115;49.296;10.602;2022-11-13T21:16:26;3.70;69.20
975;DHT22;6115;49.296;10.602;2022-11-13T21:21:29;3.50;70.00
975;DHT22;6115;49.296;10.602;2022-11-13T21:26:31;3.40;70.20
975;DHT22;6115;49.296;10.602;2022-11-13T21:31:31;3.20;70.00
975;DHT22;6115;49.296;10.602;2022-11-13T21:36:32;3.10;70.00
975;DHT22;6115;49.296;10.602;2022-11-13T21:41:32;3.10;70.00
975;DHT22;6115;49.296;10.602;2022-11-13T21:46:34;3.20;69.60
975;DHT22;6115;49.296;10.602;2022-11-13T21:51:37;3.10;69.40
975;DHT22;6115;49.296;10.602;2022-11-13T21:56:38;3.00;69.60
975;DHT22;6115;49.296;10.602;2022-11-13T22:01:41;3.00;69.90
975;DHT22;6115;49.296;10.602;2022-11-13T22:06:45;3.00;70.40
975;DHT22;6115;49.296;10.602;2022-11-13T22:11:46;3.00;71.20
975;DHT22;6115;49.296;10.602;2022-11-13T22:16:47;2.80;71.50
975;DHT22;6115;49.296;10.602;2022-11-13T22:21:47;2.70;71.50
975;DHT22;6115;49.296;10.602;2022-11-13T22:26:48;2.70;71.50
975;DHT22;6115;49.296;10.602;2022-11-13T22:31:49;2.60;71.20
975;DHT22;6115;49.296;10.602;2022-11-13T22:36:49;2.60;71.30
975;DHT22;6115;49.296;10.602;2022-11-13T22:41:50;2.60;71.00
975;DHT22;6115;49.296;10.602;2022-11-13T22:46:50;2.50;70.70
975;DHT22;6115;49.296;10.602;2022-11-13T22:51:51;2.50;70.90
975;DHT22;6115;49.296;10.602;2022-11-13T22:56:51;2.50;71.10
975;DHT22;6115;49.296;10.602;2022-11-13T23:01:52;2.50;71.30
975;DHT22;6115;49.296;10.602;2022-11-13T23:06:53;2.50;72.10
975;DHT22;6115;49.296;10.602;2022-11-13T23:11:53;2.60;72.00
975;DHT22;6115;49.296;10.602;2022-11-13T23:16:54;2.50;72.00
975;DHT22;6115;49.296;10.602;2022-11-13T23:21:54;2.50;72.00
975;DHT22;6115;49.296;10.602;2022-11-13T23:26:55;2.40;72.00
975;DHT22;6115;49.296;10.602;2022-11-13T23:31:56;2.30;72.60
975;DHT22;6115;49.296;10.602;2022-11-13T23:36:56;2.20;72.60
975;DHT22;6115;49.296;10.602;2022-11-13T23:41:57;2.20;72.60
975;DHT22;6115;49.296;10.602;2022-11-13T23:46:58;2.10;72.40
975;DHT22;6115;49.296;10.602;2022-11-13T23:51:58;2.10;72.40
975;DHT22;6115;49.296;10.602;2022-11-13T23:56:59;2.00;72.40
